Terminal Aerodrome Forecast
Issued by NWS

Home | Current Version | Previous Version | Text Only | Print | Product List | Glossary On
Versions: 1 2 3 4 5 6 7 8 9 10 11 12 13
000
FTUS43 KGRB 251740
TAFAUW
TAF
KAUW 251740Z 2518/2618 15010G15KT P6SM BKN090 BKN150
     FM252000 17010KT P6SM VCSH SCT040 OVC080
      TEMPO 2520/2524 5SM -SHRA BKN040
     FM260300 13010KT 6SM -SHRA BR OVC035 WS015/15030KT
      TEMPO 2603/2607 4SM -SHRA OVC025
     FM260700 12008KT 5SM RA BR OVC025 WS020/16040KT
     FM261300 16007KT 4SM RA BR OVC012 WS020/22035KT=

USA.gov is the U.S. government's official web portal to all federal, state and local government web resources and services.